Flight Track Log - Related Links

Times and Time Zones

All times are in EDT time to prevent confusion due to time zone crossing. See the SWA720 flight status page for this flight to view local times or setup timezone preferences in your user account.

Time Position Orientation Groundspeed Altitude Reporting Facility
EDT Latitude Longitude Course Direction KTS MPH feet Rate Location/Type
Sat 07:06:18 PM 29.6286 -95.2611 170° South 157 181 900  Level Houston Center
Sat 07:06:37 PM 29.6136 -95.2581 170° South 160 184 1,600 1,571 Climbing Houston Center
Sat 07:07:42 PM 29.5744 -95.2997 223° Southwest 223 257 3,100 2,268 Climbing Houston Center
Sat 07:08:44 PM 29.5700 -95.3783 266° West 266 306 6,400 2,903 Climbing Houston Center
Sat 07:09:46 PM 29.6172 -95.4794 298° West 297 342 9,100 2,293 Climbing Houston Center
Sat 07:10:47 PM 29.6583 -95.5733 297° West 321 369 11,100 1,951 Climbing Houston Center
Sat 07:11:49 PM 29.7044 -95.6764 297° West 356 410 13,100 2,098 Climbing Houston Center
Sat 07:12:50 PM 29.7519 -95.7847 297° West 375 432 15,400 2,195 Climbing Houston Center
Sat 07:13:52 PM 29.7992 -95.8956 296° West 384 442 17,600 2,081 Climbing Houston Center
Sat 07:14:54 PM 29.8475 -96.0061 297° West 387 445 19,700 1,854 Climbing Houston Center
Sat 07:15:55 PM 29.8986 -96.1206 297° West 395 455 21,400 1,610 Climbing Houston Center
Sat 07:16:57 PM 29.9400 -96.2406 292° West 405 466 23,000 1,366 Climbing Houston Center
Sat 07:17:58 PM 29.9464 -96.4014 273° West 423 487 24,200 1,220 Climbing Houston Center
Sat 07:19:00 PM 29.9542 -96.5350 274° West 422 486 25,500 1,355 Climbing Houston Center
Sat 07:20:02 PM 29.9781 -96.6694 282° West 431 496 27,000 1,415 Climbing Houston Center
Sat 07:21:03 PM 30.0064 -96.8019 284° West 429 494 28,400 1,366 Climbing Houston Center
Sat 07:22:05 PM 30.0339 -96.9339 284° West 427 491 29,800 1,268 Climbing Houston Center
Sat 07:23:06 PM 30.0603 -97.0642 283° West 422 486 31,000 1,171 Climbing Houston Center
Sat 07:24:08 PM 30.0867 -97.1919 283° West 415 478 32,200 1,415 Climbing Houston Center
Sat 07:25:09 PM 30.1169 -97.3436 283° West 408 470 33,900 878 Climbing Houston Center
Sat 07:26:11 PM 30.1436 -97.4697 284° West 402 463 34,000 49 Climbing Houston Center
Sat 07:27:12 PM 30.1692 -97.5981 283° West 405 466 34,000  Level Houston Center
Sat 07:28:13 PM 30.1950 -97.7250 283° West 401 461 34,000  Level Houston Center
Sat 07:29:15 PM 30.2200 -97.8517 283° West 400 460 34,000  Level Houston Center
Sat 07:30:16 PM 30.2514 -97.9867 285° West 398 458 34,000  Level Houston Center
Sat 07:31:18 PM 30.2792 -98.1106 285° West 399 459 34,000  Level Houston Center
Sat 07:32:19 PM 30.3064 -98.2344 284° West 398 458 34,000  Level Houston Center
Sat 07:33:21 PM 30.3333 -98.3525 285° West 397 457 34,000  Level Houston Center
Sat 07:34:22 PM 30.3622 -98.4783 285° West 400 460 34,000  Level Houston Center
Sat 07:35:23 PM 30.3889 -98.6022 284° West 395 455 34,000  Level Houston Center
Sat 07:36:25 PM 30.4161 -98.7283 284° West 398 458 34,000  Level Houston Center
Sat 07:37:26 PM 30.4442 -98.8531 285° West 397 457 34,000  Level Houston Center
Sat 07:38:27 PM 30.4717 -98.9783 284° West 397 457 34,000  Level Houston Center
Sat 07:39:29 PM 30.5028 -99.1228 284° West 393 452 34,000  Level Houston Center
Sat 07:40:30 PM 30.5272 -99.2286 285° West 395 455 34,000  Level Houston Center
Sat 07:41:31 PM 30.5539 -99.3519 284° West 396 456 34,000  Level Houston Center
Sat 07:42:33 PM 30.5864 -99.5006 284° West 397 457 34,000  Level Houston Center
Sat 07:43:34 PM 30.6125 -99.6258 284° West 400 460 34,000 -49 Level Houston Center
Sat 07:44:36 PM 30.6386 -99.7517 284° West 403 464 33,900  Descending Houston Center
Sat 07:45:37 PM 30.6644 -99.8739 284° West 394 453 34,000 49 Climbing Houston Center
Sat 07:46:38 PM 30.6914 -100.0017 284° West 406 467 34,000 -49 Level Houston Center
Sat 07:47:40 PM 30.7175 -100.1253 284° West 398 458 33,900  Descending Houston Center
Sat 07:48:41 PM 30.7436 -100.2522 283° West 405 466 34,000 49 Climbing Houston Center
Sat 07:49:43 PM 30.7750 -100.4058 283° West 409 471 34,000  Level Houston Center
Sat 07:50:44 PM 30.8011 -100.5292 284° West 400 460 34,000  Level Houston Center
Sat 07:51:45 PM 30.8253 -100.6522 283° West 395 455 34,000  Level Houston Center
Sat 07:52:47 PM 30.8508 -100.7761 284° West 395 455 34,000  Level Houston Center
Sat 07:53:48 PM 30.8761 -100.9003 283° West 396 456 34,000  Level Houston Center
Sat 07:54:49 PM 30.9006 -101.0222 283° West 391 450 34,000  Level Houston Center
Sat 07:55:51 PM 30.9258 -101.1478 283° West 396 456 34,000  Level Houston Center
Sat 07:56:52 PM 30.9503 -101.2733 283° West 397 457 34,000  Level Houston Center
Sat 07:57:46 PM 30.9761 -101.3953 284° West 397 457 34,000 365 Level Albuquerque Center
Sat 07:58:47 PM 30.9983 -101.5203 282° West 396 456 34,700 878 Climbing Albuquerque Center
Sat 07:59:49 PM 31.0217 -101.6419 283° West 392 451 35,800 585 Climbing Albuquerque Center
Sat 08:00:50 PM 31.0464 -101.7628 283° West 387 445 35,900 49 Climbing Albuquerque Center
Sat 08:01:52 PM 31.0714 -101.8881 283° West 390 449 35,900 49 Level Albuquerque Center
Sat 08:02:53 PM 31.1000 -102.0403 282° West 405 466 36,000 49 Climbing Albuquerque Center
Sat 08:03:55 PM 31.1236 -102.1628 283° West 392 451 36,000  Level Albuquerque Center
Sat 08:04:56 PM 31.1461 -102.2869 282° West 390 449 36,000  Level Albuquerque Center
Sat 08:05:58 PM 31.1697 -102.4086 283° West 386 444 36,000  Level Albuquerque Center
Sat 08:06:59 PM 31.1944 -102.5389 283° West 386 444 36,000  Level Albuquerque Center
Sat 08:08:01 PM 31.2172 -102.6614 282° West 384 442 36,000 -49 Level Albuquerque Center
Sat 08:09:02 PM 31.2175 -102.7856 270° West 389 448 35,900 -49 Descending Albuquerque Center
Sat 08:10:04 PM 31.1600 -102.8883 237° Southwest 387 445 35,900 49 Level Albuquerque Center
Sat 08:11:05 PM 31.0836 -102.9764 225° Southwest 387 445 36,000 49 Climbing Albuquerque Center
Sat 08:12:07 PM 31.0053 -103.0642 224° Southwest 391 450 36,000  Level Albuquerque Center
Sat 08:13:08 PM 30.9289 -103.1542 225° Southwest 391 450 36,000  Level Albuquerque Center
Sat 08:14:10 PM 30.8389 -103.2625 226° Southwest 390 449 36,000  Level Albuquerque Center
Sat 08:15:11 PM 30.7589 -103.3497 223° Southwest 392 451 36,000  Level Albuquerque Center
Sat 08:16:13 PM 30.6817 -103.4378 224° Southwest 391 450 36,000  Level Albuquerque Center
Sat 08:17:14 PM 30.6028 -103.5258 224° Southwest 392 451 36,000  Level Albuquerque Center
Sat 08:18:16 PM 30.6122 -103.6436 275° West 380 437 36,000  Level Albuquerque Center
Sat 08:19:17 PM 30.6664 -103.7564 299° West 394 453 36,000 -49 Level Albuquerque Center
Sat 08:20:19 PM 30.7222 -103.8764 298° West 395 455 35,900  Descending Albuquerque Center
Sat 08:21:20 PM 30.7736 -103.9881 298° West 394 453 36,000  Climbing Albuquerque Center
Sat 08:22:22 PM 30.8267 -104.0997 299° West 394 453 35,900  Descending Albuquerque Center
Sat 08:23:23 PM 30.8786 -104.2114 298° West 395 455 36,000 49 Climbing Albuquerque Center
Sat 08:24:25 PM 30.9300 -104.3233 298° West 393 452 36,000  Level Albuquerque Center
Sat 08:25:26 PM 30.9917 -104.4547 299° West 389 448 36,000 -49 Level Albuquerque Center
Sat 08:26:28 PM 31.0422 -104.5653 298° West 388 447 35,900  Descending Albuquerque Center
Sat 08:27:29 PM 31.0933 -104.6753 299° West 389 448 36,000 49 Climbing Albuquerque Center
Sat 08:28:30 PM 31.1442 -104.7858 298° West 389 448 36,000  Level Albuquerque Center
Sat 08:29:32 PM 31.1953 -104.8961 298° West 390 449 36,000  Level Albuquerque Center
Sat 08:30:33 PM 31.2458 -105.0072 298° West 391 450 36,000  Level Albuquerque Center
Sat 08:31:35 PM 31.3064 -105.1442 297° West 397 457 36,000 -49 Level Albuquerque Center
Sat 08:32:36 PM 31.3358 -105.2656 286° West 391 450 35,900  Descending Albuquerque Center
Sat 08:33:37 PM 31.3661 -105.3883 286° West 394 453 36,000 49 Climbing Albuquerque Center
Sat 08:34:39 PM 31.3964 -105.5103 286° West 393 452 36,000  Level Albuquerque Center
Sat 08:35:40 PM 31.4261 -105.6322 286° West 391 450 36,000  Level Albuquerque Center
Sat 08:36:41 PM 31.4567 -105.7539 286° West 391 450 36,000  Level Albuquerque Center
Sat 08:37:43 PM 31.4864 -105.8747 286° West 390 449 36,000  Level Albuquerque Center
Sat 08:38:44 PM 31.5169 -105.9967 286° West 390 449 36,000 -49 Level Albuquerque Center
Sat 08:39:46 PM 31.5528 -106.1406 286° West 386 444 35,900 -49 Descending Albuquerque Center
Sat 08:40:47 PM 31.5817 -106.2608 286° West 384 442 35,900 49 Level Albuquerque Center
Sat 08:41:48 PM 31.6106 -106.3811 286° West 385 443 36,000 49 Climbing Albuquerque Center
Sat 08:42:50 PM 31.6394 -106.5022 286° West 386 444 36,000  Level Albuquerque Center
Sat 08:43:51 PM 31.6717 -106.6319 286° West 383 441 36,000 -49 Level Albuquerque Center
Sat 08:44:52 PM 31.7008 -106.7531 286° West 385 443 35,900  Descending Albuquerque Center
Sat 08:45:54 PM 31.7303 -106.8725 286° West 381 438 36,000 49 Climbing Albuquerque Center
Sat 08:46:55 PM 31.7578 -106.9919 285° West 378 435 36,000  Level Albuquerque Center
Sat 08:47:57 PM 31.7864 -107.1125 286° West 381 438 36,000  Level Albuquerque Center
Sat 08:48:58 PM 31.8147 -107.2322 286° West 380 437 36,000  Level Albuquerque Center
Sat 08:49:59 PM 31.8428 -107.3547 285° West 385 443 36,000  Level Albuquerque Center
Sat 08:51:01 PM 31.8697 -107.4756 285° West 382 440 36,000  Level Albuquerque Center
Sat 08:52:02 PM 31.9014 -107.6089 286° West 381 438 36,000  Level Albuquerque Center
Sat 08:53:03 PM 31.9261 -107.7167 285° West 381 438 36,000  Level Albuquerque Center
Sat 08:54:05 PM 31.9592 -107.8631 285° West 383 441 36,000  Level Albuquerque Center
Sat 08:55:06 PM 31.9864 -107.9842 285° West 382 440 36,000  Level Albuquerque Center
Sat 08:56:07 PM 32.0142 -108.1072 285° West 386 444 36,000  Level Albuquerque Center
Sat 08:57:09 PM 32.0381 -108.2119 285° West 385 443 36,000  Level Albuquerque Center
Sat 08:58:10 PM 32.0706 -108.3594 285° West 388 447 36,000  Level Albuquerque Center
Sat 08:59:11 PM 32.0975 -108.4814 285° West 388 447 36,000 -390 Level Albuquerque Center
Sat 09:00:13 PM 32.1250 -108.6058 285° West 391 450 35,200 -976 Descending Albuquerque Center
Sat 09:01:14 PM 32.1531 -108.7300 285° West 394 453 34,000 -590 Descending Albuquerque Center
Sat 09:02:15 PM 32.1811 -108.8564 285° West 398 458 34,000  Level Albuquerque Center
Sat 09:03:17 PM 32.2083 -108.9844 284° West 403 464 34,000  Level Albuquerque Center
Sat 09:04:18 PM 32.2361 -109.1139 284° West 406 467 34,000  Level Albuquerque Center
Sat 09:05:19 PM 32.2639 -109.2431 284° West 407 468 34,000 -439 Level Albuquerque Center
Sat 09:06:21 PM 32.3008 -109.3967 286° West 406 467 33,100 -927 Descending Albuquerque Center
Sat 09:07:22 PM 32.3317 -109.5242 286° West 405 466 32,100 -934 Descending Albuquerque Center
Sat 09:08:23 PM 32.3622 -109.6500 286° West 402 463 31,200 -878 Descending Albuquerque Center
Sat 09:09:25 PM 32.3919 -109.7803 285° West 407 468 30,300 -585 Descending Albuquerque Center
Sat 09:10:26 PM 32.4272 -109.9133 287° West 419 482 30,000 -148 Descending Albuquerque Center
Sat 09:11:27 PM 32.4575 -110.0428 286° West 416 479 30,000  Level Albuquerque Center
Sat 09:12:29 PM 32.4886 -110.1714 286° West 411 473 30,000 -488 Level Albuquerque Center
Sat 09:13:30 PM 32.5242 -110.3222 286° West 402 463 29,000 -1,463 Descending Albuquerque Center
Sat 09:14:32 PM 32.5497 -110.4292 286° West 397 457 27,000 -2,098 Descending Albuquerque Center
Sat 09:15:33 PM 32.5767 -110.5461 285° West 378 435 24,700 -1,475 Descending Albuquerque Center
Sat 09:16:34 PM 32.6297 -110.6675 297° West 350 403 24,000 -341 Descending Albuquerque Center
Sat 09:17:36 PM 32.6836 -110.7667 303° West 353 406 24,000  Level Albuquerque Center
Sat 09:18:37 PM 32.7392 -110.8681 303° West 364 419 24,000 -885 Level Albuquerque Center
Sat 09:19:38 PM 32.7919 -110.9683 302° West 360 414 22,200 -1,902 Descending Albuquerque Center
Sat 09:20:40 PM 32.8406 -111.0622 302° West 340 391 20,100 -1,756 Descending Albuquerque Center
Sat 09:21:41 PM 32.8867 -111.1519 301° West 325 374 18,600 -1,707 Descending Albuquerque Center
Sat 09:22:43 PM 32.9283 -111.2422 299° West 314 361 16,600 -1,854 Descending Albuquerque Center
Sat 09:23:44 PM 32.9689 -111.3306 299° West 306 352 14,800 -1,426 Descending Albuquerque Center
Sat 09:24:45 PM 33.0083 -111.4161 299° West 297 342 13,700 -1,415 Descending Albuquerque Center
Sat 09:25:47 PM 33.0572 -111.5103 302° West 282 325 11,900 -1,659 Descending Albuquerque Center
Sat 09:26:48 PM 33.1072 -111.5772 312° West 276 318 10,300 -1,317 Descending Albuquerque Center
Sat 09:27:50 PM 33.1794 -111.6169 335° Northwest 286 329 9,200 -878 Descending Albuquerque Center
Sat 09:28:51 PM 33.2478 -111.6536 336° Northwest 269 310 8,500 -836 Descending Albuquerque Center
Sat 09:29:52 PM 33.3097 -111.6925 332° Northwest 253 291 7,500 -1,073 Descending Albuquerque Center
Sat 09:30:54 PM 33.3697 -111.7272 334° Northwest 241 277 6,300 -1,122 Descending Albuquerque Center
Sat 09:31:55 PM 33.4147 -111.7803 315° West 229 264 5,200 -934 Descending Albuquerque Center
Sat 09:32:56 PM 33.4289 -111.8414 286° West 194 223 4,400 -885 Descending Albuquerque Center
Sat 09:33:57 PM 33.4306 -111.8964 272° West 166 191 3,400 -1,220 Descending Albuquerque Center
Sat 09:34:59 PM 33.4319 -111.9453 272° West 148 170 1,900 -1,122 Descending Albuquerque Center
Sat 09:36:00 PM 33.4306 -112.0008 268° West 141 162 1,100 -787 Descending Albuquerque Center
Sat 09:37:00 PM 33.4333 -112.0000 40° Northeast  Level FlightAware Approximate
Sat 09:44:00 PM 33.4343 -112.0116 40° Northeast  Level Estimated

Login

Don't have an account? Register now (free) for customized features, flight alerts, and more!